sensor_id;sensor_type;location;lat;lon;timestamp;temperature;humidity
2497;DHT22;1259;48.306;14.374;2022-10-16T00:00:31;14.30;99.90
2497;DHT22;1259;48.306;14.374;2022-10-16T00:03:00;14.30;99.90
2497;DHT22;1259;48.306;14.374;2022-10-16T00:05:27;14.30;99.90
2497;DHT22;1259;48.306;14.374;2022-10-16T00:07:54;14.20;99.90
2497;DHT22;1259;48.306;14.374;2022-10-16T00:10:21;14.30;99.90
2497;DHT22;1259;48.306;14.374;2022-10-16T00:12:48;14.30;99.90
2497;DHT22;1259;48.306;14.374;2022-10-16T00:15:15;14.20;99.90
2497;DHT22;1259;48.306;14.374;2022-10-16T00:17:43;14.20;99.90
2497;DHT22;1259;48.306;14.374;2022-10-16T00:20:11;14.20;99.90
2497;DHT22;1259;48.306;14.374;2022-10-16T00:22:38;14.10;99.90
2497;DHT22;1259;48.306;14.374;2022-10-16T00:25:05;14.20;99.90
2497;DHT22;1259;48.306;14.374;2022-10-16T00:27:33;14.20;99.90
2497;DHT22;1259;48.306;14.374;2022-10-16T00:30:00;14.20;99.90
2497;DHT22;1259;48.306;14.374;2022-10-16T00:32:27;14.10;99.90
2497;DHT22;1259;48.306;14.374;2022-10-16T00:34:54;14.20;99.90
2497;DHT22;1259;48.306;14.374;2022-10-16T00:37:22;14.20;99.90
2497;DHT22;1259;48.306;14.374;2022-10-16T00:39:49;14.30;99.90
2497;DHT22;1259;48.306;14.374;2022-10-16T00:42:17;14.20;99.90
2497;DHT22;1259;48.306;14.374;2022-10-16T00:44:48;14.10;99.90
2497;DHT22;1259;48.306;14.374;2022-10-16T00:47:21;14.10;99.90
2497;DHT22;1259;48.306;14.374;2022-10-16T00:49:51;14.10;99.90
2497;DHT22;1259;48.306;14.374;2022-10-16T00:52:19;14.00;99.90
2497;DHT22;1259;48.306;14.374;2022-10-16T00:54:49;14.10;99.90
2497;DHT22;1259;48.306;14.374;2022-10-16T00:57:16;14.00;99.90
2497;DHT22;1259;48.306;14.374;2022-10-16T00:59:43;14.00;99.90
2497;DHT22;1259;48.306;14.374;2022-10-16T01:02:13;14.00;99.90
2497;DHT22;1259;48.306;14.374;2022-10-16T01:04:43;14.00;99.90
2497;DHT22;1259;48.306;14.374;2022-10-16T01:07:14;13.90;99.90
2497;DHT22;1259;48.306;14.374;2022-10-16T01:09:54;14.00;99.90
2497;DHT22;1259;48.306;14.374;2022-10-16T01:12:30;13.90;99.90
2497;DHT22;1259;48.306;14.374;2022-10-16T01:15:03;13.90;99.90
2497;DHT22;1259;48.306;14.374;2022-10-16T01:17:38;14.00;99.90
2497;DHT22;1259;48.306;14.374;2022-10-16T01:20:12;13.90;99.90
2497;DHT22;1259;48.306;14.374;2022-10-16T01:22:50;13.90;99.90
2497;DHT22;1259;48.306;14.374;2022-10-16T01:25:29;13.80;99.90
2497;DHT22;1259;48.306;14.374;2022-10-16T01:27:59;13.90;99.90
2497;DHT22;1259;48.306;14.374;2022-10-16T01:30:30;13.70;99.90
2497;DHT22;1259;48.306;14.374;2022-10-16T01:33:01;13.70;99.90
2497;DHT22;1259;48.306;14.374;2022-10-16T01:35:32;13.80;99.90
2497;DHT22;1259;48.306;14.374;2022-10-16T01:38:03;13.90;99.90
2497;DHT22;1259;48.306;14.374;2022-10-16T01:40:33;13.90;99.90
2497;DHT22;1259;48.306;14.374;2022-10-16T01:43:04;13.80;99.90
2497;DHT22;1259;48.306;14.374;2022-10-16T01:45:34;13.80;99.90
2497;DHT22;1259;48.306;14.374;2022-10-16T01:48:02;13.80;99.90
2497;DHT22;1259;48.306;14.374;2022-10-16T01:50:37;13.80;99.90
2497;DHT22;1259;48.306;14.374;2022-10-16T01:53:06;13.80;99.90
2497;DHT22;1259;48.306;14.374;2022-10-16T01:55:38;13.90;99.90
2497;DHT22;1259;48.306;14.374;2022-10-16T01:58:09;13.80;99.90
2497;DHT22;1259;48.306;14.374;2022-10-16T02:00:38;13.80;99.90
2497;DHT22;1259;48.306;14.374;2022-10-16T02:03:07;13.80;99.90
2497;DHT22;1259;48.306;14.374;2022-10-16T02:05:39;13.80;99.90
2497;DHT22;1259;48.306;14.374;2022-10-16T02:08:07;13.80;99.90
2497;DHT22;1259;48.306;14.374;2022-10-16T02:10:35;13.90;99.90
2497;DHT22;1259;48.306;14.374;2022-10-16T02:13:09;13.90;99.90
2497;DHT22;1259;48.306;14.374;2022-10-16T02:15:37;13.90;99.90
2497;DHT22;1259;48.306;14.374;2022-10-16T02:18:05;13.80;99.90
2497;DHT22;1259;48.306;14.374;2022-10-16T02:20:38;13.70;99.90
2497;DHT22;1259;48.306;14.374;2022-10-16T02:23:12;13.60;99.90
2497;DHT22;1259;48.306;14.374;2022-10-16T02:25:45;13.60;99.90
2497;DHT22;1259;48.306;14.374;2022-10-16T02:28:17;13.60;99.90
2497;DHT22;1259;48.306;14.374;2022-10-16T02:30:50;13.60;99.90
2497;DHT22;1259;48.306;14.374;2022-10-16T02:33:19;13.60;99.90
2497;DHT22;1259;48.306;14.374;2022-10-16T02:35:48;13.50;99.90
2497;DHT22;1259;48.306;14.374;2022-10-16T02:38:16;13.50;99.90
2497;DHT22;1259;48.306;14.374;2022-10-16T02:40:44;13.50;99.90
2497;DHT22;1259;48.306;14.374;2022-10-16T02:43:11;13.60;99.90
2497;DHT22;1259;48.306;14.374;2022-10-16T02:45:40;13.50;99.90
2497;DHT22;1259;48.306;14.374;2022-10-16T02:48:07;13.60;99.90
2497;DHT22;1259;48.306;14.374;2022-10-16T02:50:34;13.60;99.90
2497;DHT22;1259;48.306;14.374;2022-10-16T02:53:01;13.60;99.90
2497;DHT22;1259;48.306;14.374;2022-10-16T02:55:28;13.60;99.90
2497;DHT22;1259;48.306;14.374;2022-10-16T02:57:55;13.60;99.90
2497;DHT22;1259;48.306;14.374;2022-10-16T03:00:22;13.60;99.90
2497;DHT22;1259;48.306;14.374;2022-10-16T03:02:51;13.50;99.90
2497;DHT22;1259;48.306;14.374;2022-10-16T03:05:17;13.30;99.90
2497;DHT22;1259;48.306;14.374;2022-10-16T03:07:44;13.30;99.90
2497;DHT22;1259;48.306;14.374;2022-10-16T03:10:11;13.40;99.90
2497;DHT22;1259;48.306;14.374;2022-10-16T03:12:38;13.50;99.90
2497;DHT22;1259;48.306;14.374;2022-10-16T03:15:06;13.50;99.90
2497;DHT22;1259;48.306;14.374;2022-10-16T03:17:33;13.40;99.90
2497;DHT22;1259;48.306;14.374;2022-10-16T03:20:01;13.40;99.90
2497;DHT22;1259;48.306;14.374;2022-10-16T03:22:28;13.30;99.90
2497;DHT22;1259;48.306;14.374;2022-10-16T03:24:55;13.30;99.90
2497;DHT22;1259;48.306;14.374;2022-10-16T03:27:22;13.30;99.90
2497;DHT22;1259;48.306;14.374;2022-10-16T03:29:49;13.30;99.90
2497;DHT22;1259;48.306;14.374;2022-10-16T03:32:16;13.30;99.90
2497;DHT22;1259;48.306;14.374;2022-10-16T03:34:43;13.40;99.90
2497;DHT22;1259;48.306;14.374;2022-10-16T03:37:12;13.40;99.90
2497;DHT22;1259;48.306;14.374;2022-10-16T03:39:39;13.40;99.90
2497;DHT22;1259;48.306;14.374;2022-10-16T03:42:06;13.40;99.90
2497;DHT22;1259;48.306;14.374;2022-10-16T03:44:33;13.40;99.90
2497;DHT22;1259;48.306;14.374;2022-10-16T03:46:59;13.40;99.90
2497;DHT22;1259;48.306;14.374;2022-10-16T03:49:26;13.40;99.90
2497;DHT22;1259;48.306;14.374;2022-10-16T03:51:53;13.40;99.90
2497;DHT22;1259;48.306;14.374;2022-10-16T03:54:21;13.40;99.90
2497;DHT22;1259;48.306;14.374;2022-10-16T03:56:48;13.40;99.90
2497;DHT22;1259;48.306;14.374;2022-10-16T03:59:15;13.40;99.90
2497;DHT22;1259;48.306;14.374;2022-10-16T04:01:42;13.40;99.90
2497;DHT22;1259;48.306;14.374;2022-10-16T04:04:09;13.40;99.90
2497;DHT22;1259;48.306;14.374;2022-10-16T04:06:36;13.40;99.90
2497;DHT22;1259;48.306;14.374;2022-10-16T04:09:03;13.40;99.90
2497;DHT22;1259;48.306;14.374;2022-10-16T04:11:31;13.50;99.90
2497;DHT22;1259;48.306;14.374;2022-10-16T04:13:58;13.50;99.90
2497;DHT22;1259;48.306;14.374;2022-10-16T04:16:25;13.40;99.90
2497;DHT22;1259;48.306;14.374;2022-10-16T04:18:52;13.50;99.90
2497;DHT22;1259;48.306;14.374;2022-10-16T04:21:19;13.50;99.90
2497;DHT22;1259;48.306;14.374;2022-10-16T04:23:46;13.50;99.90
2497;DHT22;1259;48.306;14.374;2022-10-16T04:26:13;13.50;99.90
2497;DHT22;1259;48.306;14.374;2022-10-16T04:28:41;13.50;99.90
2497;DHT22;1259;48.306;14.374;2022-10-16T04:31:08;13.50;99.90
2497;DHT22;1259;48.306;14.374;2022-10-16T04:33:35;13.50;99.90
2497;DHT22;1259;48.306;14.374;2022-10-16T04:36:03;13.50;99.90
2497;DHT22;1259;48.306;14.374;2022-10-16T04:38:30;13.50;99.90
2497;DHT22;1259;48.306;14.374;2022-10-16T04:40:57;13.50;99.90
2497;DHT22;1259;48.306;14.374;2022-10-16T04:43:24;13.50;99.90
2497;DHT22;1259;48.306;14.374;2022-10-16T04:45:52;13.50;99.90
2497;DHT22;1259;48.306;14.374;2022-10-16T04:48:20;13.50;99.90
2497;DHT22;1259;48.306;14.374;2022-10-16T04:50:47;13.50;99.90
2497;DHT22;1259;48.306;14.374;2022-10-16T04:53:14;13.50;99.90
2497;DHT22;1259;48.306;14.374;2022-10-16T04:55:41;13.50;99.90
2497;DHT22;1259;48.306;14.374;2022-10-16T04:58:08;13.50;99.90
2497;DHT22;1259;48.306;14.374;2022-10-16T05:00:35;13.50;99.90
2497;DHT22;1259;48.306;14.374;2022-10-16T05:03:05;13.50;99.90
2497;DHT22;1259;48.306;14.374;2022-10-16T05:05:34;13.50;99.90
2497;DHT22;1259;48.306;14.374;2022-10-16T05:08:01;13.50;99.90
2497;DHT22;1259;48.306;14.374;2022-10-16T05:10:28;13.40;99.90
2497;DHT22;1259;48.306;14.374;2022-10-16T05:12:55;13.30;99.90
2497;DHT22;1259;48.306;14.374;2022-10-16T05:15:22;13.30;99.90
2497;DHT22;1259;48.306;14.374;2022-10-16T05:17:52;13.20;99.90
2497;DHT22;1259;48.306;14.374;2022-10-16T05:20:21;13.20;99.90
2497;DHT22;1259;48.306;14.374;2022-10-16T05:22:48;13.20;99.90
2497;DHT22;1259;48.306;14.374;2022-10-16T05:25:15;13.20;99.90
2497;DHT22;1259;48.306;14.374;2022-10-16T05:27:42;13.10;99.90
2497;DHT22;1259;48.306;14.374;2022-10-16T05:30:09;13.20;99.90
2497;DHT22;1259;48.306;14.374;2022-10-16T05:32:36;13.10;99.90
2497;DHT22;1259;48.306;14.374;2022-10-16T05:35:04;13.10;99.90
2497;DHT22;1259;48.306;14.374;2022-10-16T05:37:33;13.20;99.90
2497;DHT22;1259;48.306;14.374;2022-10-16T05:40:00;13.20;99.90
2497;DHT22;1259;48.306;14.374;2022-10-16T05:42:28;13.10;99.90
2497;DHT22;1259;48.306;14.374;2022-10-16T05:44:55;13.10;99.90
2497;DHT22;1259;48.306;14.374;2022-10-16T05:47:22;13.20;99.90
2497;DHT22;1259;48.306;14.374;2022-10-16T05:49:49;13.20;99.90
2497;DHT22;1259;48.306;14.374;2022-10-16T05:52:16;13.00;99.90
2497;DHT22;1259;48.306;14.374;2022-10-16T05:54:44;13.10;99.90
2497;DHT22;1259;48.306;14.374;2022-10-16T05:57:11;13.10;99.90
2497;DHT22;1259;48.306;14.374;2022-10-16T05:59:38;13.10;99.90
2497;DHT22;1259;48.306;14.374;2022-10-16T06:02:05;13.10;99.90
2497;DHT22;1259;48.306;14.374;2022-10-16T06:04:32;13.20;99.90
2497;DHT22;1259;48.306;14.374;2022-10-16T06:06:59;13.10;99.90
2497;DHT22;1259;48.306;14.374;2022-10-16T06:09:27;13.10;99.90
2497;DHT22;1259;48.306;14.374;2022-10-16T06:11:55;13.20;99.90
2497;DHT22;1259;48.306;14.374;2022-10-16T06:14:22;13.20;99.90
2497;DHT22;1259;48.306;14.374;2022-10-16T06:16:49;13.30;99.90
2497;DHT22;1259;48.306;14.374;2022-10-16T06:19:16;13.30;99.90
2497;DHT22;1259;48.306;14.374;2022-10-16T06:21:44;13.30;99.90
2497;DHT22;1259;48.306;14.374;2022-10-16T06:24:10;13.40;99.90
2497;DHT22;1259;48.306;14.374;2022-10-16T06:26:37;13.50;99.90
2497;DHT22;1259;48.306;14.374;2022-10-16T06:29:06;13.50;99.90
2497;DHT22;1259;48.306;14.374;2022-10-16T06:31:33;13.50;99.90
2497;DHT22;1259;48.306;14.374;2022-10-16T06:34:00;13.50;99.90
2497;DHT22;1259;48.306;14.374;2022-10-16T06:36:28;13.60;99.90
2497;DHT22;1259;48.306;14.374;2022-10-16T06:38:55;13.60;99.90
2497;DHT22;1259;48.306;14.374;2022-10-16T06:41:23;13.70;99.90
2497;DHT22;1259;48.306;14.374;2022-10-16T06:43:50;13.70;99.90
2497;DHT22;1259;48.306;14.374;2022-10-16T06:46:22;13.70;99.90
2497;DHT22;1259;48.306;14.374;2022-10-16T06:48:50;13.80;99.90
2497;DHT22;1259;48.306;14.374;2022-10-16T06:51:18;13.90;99.90
2497;DHT22;1259;48.306;14.374;2022-10-16T06:53:46;13.90;99.90
2497;DHT22;1259;48.306;14.374;2022-10-16T06:56:15;13.90;99.90
2497;DHT22;1259;48.306;14.374;2022-10-16T06:58:43;14.00;99.90
2497;DHT22;1259;48.306;14.374;2022-10-16T07:01:10;13.90;99.90
2497;DHT22;1259;48.306;14.374;2022-10-16T07:03:40;13.90;99.90
2497;DHT22;1259;48.306;14.374;2022-10-16T07:06:09;14.00;99.90
2497;DHT22;1259;48.306;14.374;2022-10-16T07:08:38;14.10;99.90
2497;DHT22;1259;48.306;14.374;2022-10-16T07:11:08;14.10;99.90
2497;DHT22;1259;48.306;14.374;2022-10-16T07:13:35;14.20;99.90
2497;DHT22;1259;48.306;14.374;2022-10-16T07:16:04;14.30;99.90
2497;DHT22;1259;48.306;14.374;2022-10-16T07:18:32;14.30;99.90
2497;DHT22;1259;48.306;14.374;2022-10-16T07:21:05;14.30;99.90
2497;DHT22;1259;48.306;14.374;2022-10-16T07:23:32;14.40;99.90
2497;DHT22;1259;48.306;14.374;2022-10-16T07:25:59;14.60;99.90
2497;DHT22;1259;48.306;14.374;2022-10-16T07:28:26;14.60;99.90
2497;DHT22;1259;48.306;14.374;2022-10-16T07:30:53;14.80;99.90
2497;DHT22;1259;48.306;14.374;2022-10-16T07:33:20;14.80;99.90
2497;DHT22;1259;48.306;14.374;2022-10-16T07:35:51;15.00;99.90
2497;DHT22;1259;48.306;14.374;2022-10-16T07:38:20;15.20;99.90
2497;DHT22;1259;48.306;14.374;2022-10-16T07:40:48;15.30;99.90
2497;DHT22;1259;48.306;14.374;2022-10-16T07:43:15;15.40;99.90
2497;DHT22;1259;48.306;14.374;2022-10-16T07:45:48;15.70;99.90
2497;DHT22;1259;48.306;14.374;2022-10-16T07:48:15;15.80;99.90
2497;DHT22;1259;48.306;14.374;2022-10-16T07:50:42;16.00;99.90
2497;DHT22;1259;48.306;14.374;2022-10-16T07:53:10;16.10;99.90
2497;DHT22;1259;48.306;14.374;2022-10-16T07:55:38;16.20;99.90
2497;DHT22;1259;48.306;14.374;2022-10-16T07:58:06;16.30;99.90
2497;DHT22;1259;48.306;14.374;2022-10-16T08:00:35;16.30;99.90
2497;DHT22;1259;48.306;14.374;2022-10-16T08:03:02;16.00;99.90
2497;DHT22;1259;48.306;14.374;2022-10-16T08:05:31;15.80;99.90
2497;DHT22;1259;48.306;14.374;2022-10-16T08:07:58;15.60;99.90
2497;DHT22;1259;48.306;14.374;2022-10-16T08:10:26;15.60;99.90
2497;DHT22;1259;48.306;14.374;2022-10-16T08:12:55;15.70;99.90
2497;DHT22;1259;48.306;14.374;2022-10-16T08:15:22;15.70;99.90
2497;DHT22;1259;48.306;14.374;2022-10-16T08:17:57;15.80;99.90
2497;DHT22;1259;48.306;14.374;2022-10-16T08:20:25;15.80;99.90
2497;DHT22;1259;48.306;14.374;2022-10-16T08:22:52;16.10;99.90
2497;DHT22;1259;48.306;14.374;2022-10-16T08:25:19;16.30;99.90
2497;DHT22;1259;48.306;14.374;2022-10-16T08:27:47;16.40;99.90
2497;DHT22;1259;48.306;14.374;2022-10-16T08:30:16;16.10;99.90
2497;DHT22;1259;48.306;14.374;2022-10-16T08:32:43;16.20;99.90
2497;DHT22;1259;48.306;14.374;2022-10-16T08:35:10;16.30;99.90
2497;DHT22;1259;48.306;14.374;2022-10-16T08:37:38;16.50;99.90
2497;DHT22;1259;48.306;14.374;2022-10-16T08:40:07;16.20;99.90
2497;DHT22;1259;48.306;14.374;2022-10-16T08:42:51;16.10;99.90
2497;DHT22;1259;48.306;14.374;2022-10-16T08:45:34;16.30;99.90
2497;DHT22;1259;48.306;14.374;2022-10-16T08:48:13;16.30;99.90
2497;DHT22;1259;48.306;14.374;2022-10-16T08:50:41;16.40;99.90
2497;DHT22;1259;48.306;14.374;2022-10-16T08:53:15;16.70;99.90
2497;DHT22;1259;48.306;14.374;2022-10-16T08:55:45;16.70;99.90
2497;DHT22;1259;48.306;14.374;2022-10-16T08:58:15;16.50;99.90
2497;DHT22;1259;48.306;14.374;2022-10-16T09:00:46;16.50;99.90
2497;DHT22;1259;48.306;14.374;2022-10-16T09:03:21;16.60;99.90
2497;DHT22;1259;48.306;14.374;2022-10-16T09:05:57;16.80;99.90
2497;DHT22;1259;48.306;14.374;2022-10-16T09:08:40;16.90;99.90
2497;DHT22;1259;48.306;14.374;2022-10-16T09:11:14;17.10;99.90
2497;DHT22;1259;48.306;14.374;2022-10-16T09:13:51;17.40;99.90
2497;DHT22;1259;48.306;14.374;2022-10-16T09:16:27;17.50;99.90
2497;DHT22;1259;48.306;14.374;2022-10-16T09:18:59;17.50;99.90
2497;DHT22;1259;48.306;14.374;2022-10-16T09:21:29;17.60;99.90
2497;DHT22;1259;48.306;14.374;2022-10-16T09:23:59;17.40;99.90
2497;DHT22;1259;48.306;14.374;2022-10-16T09:26:26;17.50;99.90
2497;DHT22;1259;48.306;14.374;2022-10-16T09:28:53;17.60;99.90
2497;DHT22;1259;48.306;14.374;2022-10-16T09:31:23;17.50;99.90
2497;DHT22;1259;48.306;14.374;2022-10-16T09:33:55;17.30;99.90
2497;DHT22;1259;48.306;14.374;2022-10-16T09:36:25;17.20;99.90
2497;DHT22;1259;48.306;14.374;2022-10-16T09:39:03;17.40;99.90
2497;DHT22;1259;48.306;14.374;2022-10-16T09:41:33;17.40;99.90
2497;DHT22;1259;48.306;14.374;2022-10-16T09:44:02;17.40;99.90
2497;DHT22;1259;48.306;14.374;2022-10-16T09:46:32;17.50;99.90
2497;DHT22;1259;48.306;14.374;2022-10-16T09:49:02;17.50;99.90
2497;DHT22;1259;48.306;14.374;2022-10-16T09:51:31;17.60;99.90
2497;DHT22;1259;48.306;14.374;2022-10-16T09:54:01;17.60;99.90
2497;DHT22;1259;48.306;14.374;2022-10-16T09:56:30;17.70;99.90
2497;DHT22;1259;48.306;14.374;2022-10-16T09:59:00;17.50;99.90
2497;DHT22;1259;48.306;14.374;2022-10-16T10:01:35;17.70;99.90
2497;DHT22;1259;48.306;14.374;2022-10-16T10:04:03;17.70;99.90
2497;DHT22;1259;48.306;14.374;2022-10-16T10:06:31;17.50;99.90
2497;DHT22;1259;48.306;14.374;2022-10-16T10:09:06;17.80;99.90
2497;DHT22;1259;48.306;14.374;2022-10-16T10:11:43;17.90;99.90
2497;DHT22;1259;48.306;14.374;2022-10-16T10:14:32;18.10;99.90
2497;DHT22;1259;48.306;14.374;2022-10-16T10:17:18;18.20;99.90
2497;DHT22;1259;48.306;14.374;2022-10-16T10:19:51;18.40;99.90
2497;DHT22;1259;48.306;14.374;2022-10-16T10:22:23;18.50;99.90
2497;DHT22;1259;48.306;14.374;2022-10-16T10:24:59;18.50;99.90
2497;DHT22;1259;48.306;14.374;2022-10-16T10:27:34;18.70;99.90
2497;DHT22;1259;48.306;14.374;2022-10-16T10:30:07;18.80;99.90
2497;DHT22;1259;48.306;14.374;2022-10-16T10:32:46;18.90;99.90
2497;DHT22;1259;48.306;14.374;2022-10-16T10:35:22;18.70;99.90
2497;DHT22;1259;48.306;14.374;2022-10-16T10:38:04;18.60;99.90
2497;DHT22;1259;48.306;14.374;2022-10-16T10:40:40;18.60;99.90
2497;DHT22;1259;48.306;14.374;2022-10-16T10:43:18;18.60;99.90
2497;DHT22;1259;48.306;14.374;2022-10-16T10:45:47;18.70;99.90
2497;DHT22;1259;48.306;14.374;2022-10-16T10:48:27;18.80;99.90
2497;DHT22;1259;48.306;14.374;2022-10-16T10:51:03;18.90;99.90
2497;DHT22;1259;48.306;14.374;2022-10-16T10:53:42;19.00;99.90
2497;DHT22;1259;48.306;14.374;2022-10-16T10:56:24;19.00;99.90
2497;DHT22;1259;48.306;14.374;2022-10-16T10:59:11;19.20;99.90
2497;DHT22;1259;48.306;14.374;2022-10-16T11:01:48;19.40;99.90
2497;DHT22;1259;48.306;14.374;2022-10-16T11:07:24;19.40;99.90
2497;DHT22;1259;48.306;14.374;2022-10-16T11:09:55;19.50;99.90
2497;DHT22;1259;48.306;14.374;2022-10-16T11:12:27;19.60;99.90
2497;DHT22;1259;48.306;14.374;2022-10-16T11:14:58;19.60;99.90
2497;DHT22;1259;48.306;14.374;2022-10-16T11:17:30;19.60;99.90
2497;DHT22;1259;48.306;14.374;2022-10-16T11:20:02;19.80;99.90
2497;DHT22;1259;48.306;14.374;2022-10-16T11:22:36;19.90;99.90
2497;DHT22;1259;48.306;14.374;2022-10-16T11:25:13;19.90;99.90
2497;DHT22;1259;48.306;14.374;2022-10-16T11:27:44;20.00;99.90
2497;DHT22;1259;48.306;14.374;2022-10-16T11:30:16;20.00;99.90
2497;DHT22;1259;48.306;14.374;2022-10-16T11:33:04;20.00;99.90
2497;DHT22;1259;48.306;14.374;2022-10-16T11:35:41;20.00;99.90
2497;DHT22;1259;48.306;14.374;2022-10-16T11:38:15;20.10;99.90
2497;DHT22;1259;48.306;14.374;2022-10-16T11:40:50;20.10;99.90
2497;DHT22;1259;48.306;14.374;2022-10-16T11:43:22;20.10;99.90
2497;DHT22;1259;48.306;14.374;2022-10-16T11:45:53;20.10;99.90
2497;DHT22;1259;48.306;14.374;2022-10-16T11:48:27;19.90;99.90
2497;DHT22;1259;48.306;14.374;2022-10-16T11:51:00;19.90;99.90
2497;DHT22;1259;48.306;14.374;2022-10-16T11:53:39;19.90;99.90
2497;DHT22;1259;48.306;14.374;2022-10-16T11:56:12;20.00;99.90
2497;DHT22;1259;48.306;14.374;2022-10-16T11:58:46;20.00;99.90
2497;DHT22;1259;48.306;14.374;2022-10-16T12:01:20;20.10;99.90
2497;DHT22;1259;48.306;14.374;2022-10-16T12:03:59;20.30;99.90
2497;DHT22;1259;48.306;14.374;2022-10-16T12:06:33;20.40;99.90
2497;DHT22;1259;48.306;14.374;2022-10-16T12:09:03;20.30;99.90
2497;DHT22;1259;48.306;14.374;2022-10-16T12:11:36;20.30;99.90
2497;DHT22;1259;48.306;14.374;2022-10-16T12:14:07;20.40;99.90
2497;DHT22;1259;48.306;14.374;2022-10-16T12:16:34;20.40;99.90
2497;DHT22;1259;48.306;14.374;2022-10-16T12:19:12;20.50;99.90
2497;DHT22;1259;48.306;14.374;2022-10-16T12:21:40;20.50;99.90
2497;DHT22;1259;48.306;14.374;2022-10-16T12:24:21;20.50;99.90
2497;DHT22;1259;48.306;14.374;2022-10-16T12:26:49;20.50;99.90
2497;DHT22;1259;48.306;14.374;2022-10-16T12:29:32;20.50;99.90
2497;DHT22;1259;48.306;14.374;2022-10-16T12:31:59;20.60;99.90
2497;DHT22;1259;48.306;14.374;2022-10-16T12:34:29;20.50;99.90
2497;DHT22;1259;48.306;14.374;2022-10-16T12:37:06;20.50;99.90
2497;DHT22;1259;48.306;14.374;2022-10-16T12:39:35;20.60;99.90
2497;DHT22;1259;48.306;14.374;2022-10-16T12:42:05;20.50;99.90
2497;DHT22;1259;48.306;14.374;2022-10-16T12:44:34;20.50;99.90
2497;DHT22;1259;48.306;14.374;2022-10-16T12:47:02;20.50;99.90
2497;DHT22;1259;48.306;14.374;2022-10-16T12:49:32;20.60;99.90
2497;DHT22;1259;48.306;14.374;2022-10-16T12:51:59;20.60;99.90
2497;DHT22;1259;48.306;14.374;2022-10-16T12:54:29;20.60;99.90
2497;DHT22;1259;48.306;14.374;2022-10-16T12:57:12;20.60;99.90
2497;DHT22;1259;48.306;14.374;2022-10-16T12:59:46;20.70;99.90
2497;DHT22;1259;48.306;14.374;2022-10-16T13:02:39;20.70;99.90
2497;DHT22;1259;48.306;14.374;2022-10-16T13:05:25;20.60;99.90
2497;DHT22;1259;48.306;14.374;2022-10-16T13:08:01;20.70;99.90
2497;DHT22;1259;48.306;14.374;2022-10-16T13:10:37;20.60;99.90
2497;DHT22;1259;48.306;14.374;2022-10-16T13:13:39;20.60;99.90
2497;DHT22;1259;48.306;14.374;2022-10-16T13:16:17;20.60;99.90
2497;DHT22;1259;48.306;14.374;2022-10-16T13:18:56;20.60;99.90
2497;DHT22;1259;48.306;14.374;2022-10-16T13:21:36;20.60;99.90
2497;DHT22;1259;48.306;14.374;2022-10-16T13:24:16;20.60;99.90
2497;DHT22;1259;48.306;14.374;2022-10-16T13:26:50;20.60;99.90
2497;DHT22;1259;48.306;14.374;2022-10-16T13:29:21;20.60;99.90
2497;DHT22;1259;48.306;14.374;2022-10-16T13:31:48;20.60;99.90
2497;DHT22;1259;48.306;14.374;2022-10-16T13:34:18;20.60;99.90
2497;DHT22;1259;48.306;14.374;2022-10-16T13:36:47;20.50;99.90
2497;DHT22;1259;48.306;14.374;2022-10-16T13:39:21;20.60;99.90
2497;DHT22;1259;48.306;14.374;2022-10-16T13:42:01;20.60;99.90
2497;DHT22;1259;48.306;14.374;2022-10-16T13:44:34;20.60;99.90
2497;DHT22;1259;48.306;14.374;2022-10-16T13:47:02;20.60;99.90
2497;DHT22;1259;48.306;14.374;2022-10-16T13:49:29;20.50;99.90
2497;DHT22;1259;48.306;14.374;2022-10-16T13:51:57;20.50;99.90
2497;DHT22;1259;48.306;14.374;2022-10-16T13:54:26;20.40;99.90
2497;DHT22;1259;48.306;14.374;2022-10-16T13:56:54;20.40;99.90
2497;DHT22;1259;48.306;14.374;2022-10-16T13:59:25;20.40;99.90
2497;DHT22;1259;48.306;14.374;2022-10-16T14:01:57;20.40;99.90
2497;DHT22;1259;48.306;14.374;2022-10-16T14:04:32;20.40;99.90
2497;DHT22;1259;48.306;14.374;2022-10-16T14:06:59;20.30;99.90
2497;DHT22;1259;48.306;14.374;2022-10-16T14:09:28;20.30;99.90
2497;DHT22;1259;48.306;14.374;2022-10-16T14:11:57;20.20;99.90
2497;DHT22;1259;48.306;14.374;2022-10-16T14:14:27;20.30;99.90
2497;DHT22;1259;48.306;14.374;2022-10-16T14:16:57;20.20;99.90
2497;DHT22;1259;48.306;14.374;2022-10-16T14:19:26;20.30;99.90
2497;DHT22;1259;48.306;14.374;2022-10-16T14:21:54;20.20;99.90
2497;DHT22;1259;48.306;14.374;2022-10-16T14:24:26;20.20;99.90
2497;DHT22;1259;48.306;14.374;2022-10-16T14:26:54;20.10;99.90
2497;DHT22;1259;48.306;14.374;2022-10-16T14:29:23;20.20;99.90
2497;DHT22;1259;48.306;14.374;2022-10-16T14:31:56;20.10;99.90
2497;DHT22;1259;48.306;14.374;2022-10-16T14:34:29;20.00;99.90
2497;DHT22;1259;48.306;14.374;2022-10-16T14:36:59;20.00;99.90
2497;DHT22;1259;48.306;14.374;2022-10-16T14:39:30;20.00;99.90
2497;DHT22;1259;48.306;14.374;2022-10-16T14:41:58;19.90;99.90
2497;DHT22;1259;48.306;14.374;2022-10-16T14:44:29;19.90;99.90
2497;DHT22;1259;48.306;14.374;2022-10-16T14:47:07;19.90;99.90
2497;DHT22;1259;48.306;14.374;2022-10-16T14:49:35;19.90;99.90
2497;DHT22;1259;48.306;14.374;2022-10-16T14:52:08;19.80;99.90
2497;DHT22;1259;48.306;14.374;2022-10-16T14:54:35;19.80;99.90
2497;DHT22;1259;48.306;14.374;2022-10-16T14:57:02;19.80;99.90
2497;DHT22;1259;48.306;14.374;2022-10-16T14:59:33;19.70;99.90
2497;DHT22;1259;48.306;14.374;2022-10-16T15:02:15;19.70;99.90
2497;DHT22;1259;48.306;14.374;2022-10-16T15:04:43;19.70;99.90
2497;DHT22;1259;48.306;14.374;2022-10-16T15:07:10;19.60;99.90
2497;DHT22;1259;48.306;14.374;2022-10-16T15:09:37;19.60;99.90
2497;DHT22;1259;48.306;14.374;2022-10-16T15:12:05;19.60;99.90
2497;DHT22;1259;48.306;14.374;2022-10-16T15:14:32;19.60;99.90
2497;DHT22;1259;48.306;14.374;2022-10-16T15:16:58;19.60;99.90
2497;DHT22;1259;48.306;14.374;2022-10-16T15:19:27;19.60;99.90
2497;DHT22;1259;48.306;14.374;2022-10-16T15:21:54;19.50;99.90
2497;DHT22;1259;48.306;14.374;2022-10-16T15:24:20;19.50;99.90
2497;DHT22;1259;48.306;14.374;2022-10-16T15:26:48;19.40;99.90
2497;DHT22;1259;48.306;14.374;2022-10-16T15:29:15;19.40;99.90
2497;DHT22;1259;48.306;14.374;2022-10-16T15:31:42;19.40;99.90
2497;DHT22;1259;48.306;14.374;2022-10-16T15:34:09;19.40;99.90
2497;DHT22;1259;48.306;14.374;2022-10-16T15:36:38;19.30;99.90
2497;DHT22;1259;48.306;14.374;2022-10-16T15:39:10;19.20;99.90
2497;DHT22;1259;48.306;14.374;2022-10-16T15:41:38;19.20;99.90
2497;DHT22;1259;48.306;14.374;2022-10-16T15:44:05;19.20;99.90
2497;DHT22;1259;48.306;14.374;2022-10-16T15:46:32;19.20;99.90
2497;DHT22;1259;48.306;14.374;2022-10-16T15:49:00;19.10;99.90
2497;DHT22;1259;48.306;14.374;2022-10-16T15:51:28;19.00;99.90
2497;DHT22;1259;48.306;14.374;2022-10-16T15:53:57;19.00;99.90
2497;DHT22;1259;48.306;14.374;2022-10-16T15:56:24;18.90;99.90
2497;DHT22;1259;48.306;14.374;2022-10-16T15:58:51;18.80;99.90
2497;DHT22;1259;48.306;14.374;2022-10-16T16:01:19;18.80;99.90
2497;DHT22;1259;48.306;14.374;2022-10-16T16:03:46;18.70;99.90
2497;DHT22;1259;48.306;14.374;2022-10-16T16:06:14;18.80;99.90